地図

経路データ

SID SEASON NUMBER BASIN SUBBASIN NAME ISO_TIME NATURE LAT LON WMO_WIND WMO_PRES WMO_AGENCY TRACK_TYPE DIST2LAND LANDFALL IFLAG USA_AGENCY USA_ATCF_ID USA_LAT USA_LON USA_RECORD USA_STATUS USA_WIND USA_PRES USA_SSHS USA_R34_NE USA_R34_SE USA_R34_SW USA_R34_NW USA_R50_NE USA_R50_SE USA_R50_SW USA_R50_NW USA_R64_NE USA_R64_SE USA_R64_SW USA_R64_NW USA_POCI USA_ROCI USA_RMW USA_EYE TOKYO_LAT TOKYO_LON TOKYO_GRADE TOKYO_WIND TOKYO_PRES TOKYO_R50_DIR TOKYO_R50_LONG TOKYO_R50_SHORT TOKYO_R30_DIR TOKYO_R30_LONG TOKYO_R30_SHORT TOKYO_LAND CMA_LAT CMA_LON CMA_CAT CMA_WIND CMA_PRES HKO_LAT HKO_LON HKO_CAT HKO_WIND HKO_PRES NEWDELHI_LAT NEWDELHI_LON NEWDELHI_GRADE NEWDELHI_WIND NEWDELHI_PRES NEWDELHI_CI NEWDELHI_DP NEWDELHI_POCI REUNION_LAT REUNION_LON REUNION_TYPE REUNION_WIND REUNION_PRES REUNION_TNUM REUNION_CI REUNION_RMW REUNION_R34_NE REUNION_R34_SE REUNION_R34_SW REUNION_R34_NW REUNION_R50_NE REUNION_R50_SE REUNION_R50_SW REUNION_R50_NW REUNION_R64_NE REUNION_R64_SE REUNION_R64_SW REUNION_R64_NW BOM_LAT BOM_LON BOM_TYPE BOM_WIND BOM_PRES BOM_TNUM BOM_CI BOM_RMW BOM_R34_NE BOM_R34_SE BOM_R34_SW BOM_R34_NW BOM_R50_NE BOM_R50_SE BOM_R50_SW BOM_R50_NW BOM_R64_NE BOM_R64_SE BOM_R64_SW BOM_R64_NW BOM_ROCI BOM_POCI BOM_EYE BOM_POS_METHOD BOM_PRES_METHOD NADI_LAT NADI_LON NADI_CAT NADI_WIND NADI_PRES WELLINGTON_LAT WELLINGTON_LON WELLINGTON_WIND WELLINGTON_PRES DS824_LAT DS824_LON DS824_STAGE DS824_WIND DS824_PRES TD9636_LAT TD9636_LON TD9636_STAGE TD9636_WIND TD9636_PRES TD9635_LAT TD9635_LON TD9635_WIND TD9635_PRES TD9635_ROCI NEUMANN_LAT NEUMANN_LON NEUMANN_CLASS NEUMANN_WIND NEUMANN_PRES MLC_LAT MLC_LON MLC_CLASS MLC_WIND MLC_PRES USA_GUST BOM_GUST BOM_GUST_PER REUNION_GUST REUNION_GUST_PER USA_SEAHGT USA_SEARAD_NE USA_SEARAD_SE USA_SEARAD_SW USA_SEARAD_NW STORM_SPEED STORM_DIR
1924365S12064 1925 56 SI MM NOT_NAMED 1924-12-30 06:00:00 NR -12.3000 63.5000 reunion main 1070 1070 _____O________ -1 -12.3000 63.5000 99 9.90000 1 227
1924365S12064 1925 56 SI MM NOT_NAMED 1924-12-30 09:00:00 NR -12.3379 63.4657 main 1070 1054 _____P________ -1 -12.3379 63.4657 99 1 220
1924365S12064 1925 56 SI MM NOT_NAMED 1924-12-30 12:00:00 NR -12.3804 63.4251 main 1054 1054 _____P________ -1 -12.3804 63.4251 99 1 224
1924365S12064 1925 56 SI MM NOT_NAMED 1924-12-30 15:00:00 NR -12.4325 63.3720 main 1054 1039 _____P________ -1 -12.4325 63.3720 99 2 225
1924365S12064 1925 56 SI MM NOT_NAMED 1924-12-30 18:00:00 NR -12.4987 63.3003 main 1039 1023 _____P________ -1 -12.4987 63.3003 99 2 227
1924365S12064 1925 56 SI MM NOT_NAMED 1924-12-30 21:00:00 NR -12.5839 63.2035 main 1023 1008 _____P________ -1 -12.5839 63.2035 99 3 229
1924365S12064 1925 56 SI MM NOT_NAMED 1924-12-31 00:00:00 NR -12.6927 63.0754 main 1008 987 _____P________ -1 -12.6927 63.0754 99 4 229
1924365S12064 1925 56 SI MM NOT_NAMED 1924-12-31 03:00:00 NR -12.8299 62.9097 main 987 956 _____P________ -1 -12.8299 62.9097 99 5 230
1924365S12064 1925 56 SI MM NOT_NAMED 1924-12-31 06:00:00 NR -13.0000 62.7000 reunion main 956 926 _____O________ -1 -13.0000 62.7000 99 9.90000 6 230
1924365S12064 1925 56 SI MM NOT_NAMED 1924-12-31 09:00:00 NR -13.2058 62.4428 main 920 889 _____P________ -1 -13.2058 62.4428 99 7 231
1924365S12064 1925 56 SI MM NOT_NAMED 1924-12-31 12:00:00 NR -13.4420 62.1465 main 884 838 _____P________ -1 -13.4420 62.1465 99 8 231
1924365S12064 1925 56 SI MM NOT_NAMED 1924-12-31 15:00:00 NR -13.7016 61.8227 main 838 793 _____P________ -1 -13.7016 61.8227 99 8 230
1924365S12064 1925 56 SI MM NOT_NAMED 1924-12-31 18:00:00 NR -13.9772 61.4830 main 793 757 _____P________ -1 -13.9772 61.4830 99 9 230
1924365S12064 1925 56 SI MM NOT_NAMED 1924-12-31 21:00:00 NR -14.2618 61.1391 main 742 707 _____P________ -1 -14.2618 61.1391 99 9 229
1924365S12064 1925 56 SI MM NOT_NAMED 1925-01-01 00:00:00 NR -14.5485 60.8027 main 707 663 _____P________ -1 -14.5485 60.8027 99 9 228
1924365S12064 1925 56 SI MM NOT_NAMED 1925-01-01 03:00:00 NR -14.8302 60.4857 main 663 619 _____P________ -1 -14.8302 60.4857 99 8 227
1924365S12064 1925 56 SI MM NOT_NAMED 1925-01-01 06:00:00 NR -15.1000 60.2000 reunion main 619 589 _____O________ -1 -15.1000 60.2000 99 9.90000 7 225
1924365S12064 1925 56 SI MM NOT_NAMED 1925-01-01 09:00:00 NR -15.3229 59.9773 main 589 560 _____P________ -1 -15.3229 59.9773 99 6 223
1924365S12064 1925 56 SI MM NOT_NAMED 1925-01-01 12:00:00 NR -15.5366 59.7809 main 560 531 _____P________ -1 -15.5366 59.7809 99 6 220
1924365S12064 1925 56 SI MM NOT_NAMED 1925-01-01 15:00:00 NR -15.7443 59.6081 main 531 507 _____P________ -1 -15.7443 59.6081 99 5 217
1924365S12064 1925 56 SI MM NOT_NAMED 1925-01-01 18:00:00 NR -15.9490 59.4560 main 507 478 _____P________ -1 -15.9490 59.4560 99 5 214
1924365S12064 1925 56 SI MM NOT_NAMED 1925-01-01 21:00:00 NR -16.1538 59.3220 main 467 443 _____P________ -1 -16.1538 59.3220 99 5 211
1924365S12064 1925 56 SI MM NOT_NAMED 1925-01-02 00:00:00 NR -16.3619 59.2031 main 443 418 _____P________ -1 -16.3619 59.2031 99 5 207
1924365S12064 1925 56 SI MM NOT_NAMED 1925-01-02 03:00:00 NR -16.5763 59.0968 main 418 393 _____P________ -1 -16.5763 59.0968 99 5 204
1924365S12064 1925 56 SI MM NOT_NAMED 1925-01-02 06:00:00 NR -16.8000 59.0000 reunion main 393 369 _____O________ -1 -16.8000 59.0000 99 9.90000 5 205
1924365S12064 1925 56 SI MM NOT_NAMED 1925-01-02 09:00:00 NR -17.0419 58.8650 main 369 330 _____P________ -1 -17.0419 58.8650 99 6 207
1924365S12064 1925 56 SI MM NOT_NAMED 1925-01-02 12:00:00 NR -17.2920 58.7387 main 330 305 _____P________ -1 -17.2920 58.7387 99 6 204
1924365S12064 1925 56 SI MM NOT_NAMED 1925-01-02 15:00:00 NR -17.5491 58.6254 main 305 270 _____P________ -1 -17.5491 58.6254 99 6 201
1924365S12064 1925 56 SI MM NOT_NAMED 1925-01-02 18:00:00 NR -17.8122 58.5292 main 270 239 _____P________ -1 -17.8122 58.5292 99 6 197
1924365S12064 1925 56 SI MM NOT_NAMED 1925-01-02 21:00:00 NR -18.0799 58.4542 main 239 214 _____P________ -1 -18.0799 58.4542 99 6 193
1924365S12064 1925 56 SI MM NOT_NAMED 1925-01-03 00:00:00 NR -18.3513 58.4049 main 203 183 _____P________ -1 -18.3513 58.4049 99 6 187
1924365S12064 1925 56 SI MM NOT_NAMED 1925-01-03 03:00:00 NR -18.6250 58.3854 main 183 152 _____P________ -1 -18.6250 58.3854 99 6 0
1924365S12064 1925 56 SI MM NOT_NAMED 1925-01-03 06:00:00 NR -18.9000 58.4000 reunion main 152 133 _____O________ -1 -18.9000 58.4000 99 9.90000 5 0
1924365S12064 1925 56 SI MM NOT_NAMED 1925-01-03 09:00:00 NR -19.1634 58.3948 main 124 107 _____P________ -1 -19.1634 58.3948 99 5 0
1924365S12064 1925 56 SI MM NOT_NAMED 1925-01-03 12:00:00 NR -19.4280 58.4177 main 107 92 _____P________ -1 -19.4280 58.4177 99 5 171
1924365S12064 1925 56 SI MM NOT_NAMED 1925-01-03 15:00:00 NR -19.6950 58.4751 main 94 85 _____P________ -1 -19.6950 58.4751 99 6 165
1924365S12064 1925 56 SI MM NOT_NAMED 1925-01-03 18:00:00 NR -19.9654 58.5731 main 89 86 _____P________ -1 -19.9654 58.5731 99 6 157
1924365S12064 1925 56 SI MM NOT_NAMED 1925-01-03 21:00:00 NR -20.2401 58.7181 main 94 93 _____P________ -1 -20.2401 58.7181 99 6 150
1924365S12064 1925 56 SI MM NOT_NAMED 1925-01-04 00:00:00 NR -20.5202 58.9165 main 116 116 _____P________ -1 -20.5202 58.9165 99 7 143
1924365S12064 1925 56 SI MM NOT_NAMED 1925-01-04 03:00:00 NR -20.8066 59.1750 main 156 156 _____P________ -1 -20.8066 59.1750 99 8 137
1924365S12064 1925 56 SI MM NOT_NAMED 1925-01-04 06:00:00 NR -21.1000 59.5000 reunion main 198 198 _____O________ -1 -21.1000 59.5000 99 9.90000 10 131
1924365S12064 1925 56 SI MM NOT_NAMED 1925-01-04 09:00:00 NR -21.4449 59.9639 main 259 259 _____P________ -1 -21.4449 59.9639 99 12 127
1924365S12064 1925 56 SI MM NOT_NAMED 1925-01-04 12:00:00 NR -21.8012 60.5082 main 324 324 _____P________ -1 -21.8012 60.5082 99 13 124
1924365S12064 1925 56 SI MM NOT_NAMED 1925-01-04 15:00:00 NR -22.1581 61.1074 main 400 400 _____P________ -1 -22.1581 61.1074 99 13 122
1924365S12064 1925 56 SI MM NOT_NAMED 1925-01-04 18:00:00 NR -22.5052 61.7355 main 470 470 _____P________ -1 -22.5052 61.7355 99 13 120
1924365S12064 1925 56 SI MM NOT_NAMED 1925-01-04 21:00:00 NR -22.8323 62.3659 main 549 549 _____P________ -1 -22.8323 62.3659 99 13 119
1924365S12064 1925 56 SI MM NOT_NAMED 1925-01-05 00:00:00 NR -23.1300 62.9717 main 619 619 _____P________ -1 -23.1300 62.9717 99 12 118
1924365S12064 1925 56 SI MM NOT_NAMED 1925-01-05 03:00:00 NR -23.3888 63.5256 main 680 680 _____P________ -1 -23.3888 63.5256 99 11 116
1924365S12064 1925 56 SI MM NOT_NAMED 1925-01-05 06:00:00 NR -23.6000 64.0000 reunion main 735 735 _____O________ -1 -23.6000 64.0000 99 9.90000 9 115
1924365S12064 1925 56 SI MM NOT_NAMED 1925-01-05 09:00:00 NR -23.7577 64.3740 main 782 782 _____P________ -1 -23.7577 64.3740 99 7 114
1924365S12064 1925 56 SI MM NOT_NAMED 1925-01-05 12:00:00 NR -23.8668 64.6538 main 814 814 _____P________ -1 -23.8668 64.6538 99 5 112
1924365S12064 1925 56 SI MM NOT_NAMED 1925-01-05 15:00:00 NR -23.9347 64.8526 main 832 832 _____P________ -1 -23.9347 64.8526 99 3 109
1924365S12064 1925 56 SI MM NOT_NAMED 1925-01-05 18:00:00 NR -23.9685 64.9835 main 846 846 _____P________ -1 -23.9685 64.9835 99 2 102
1924365S12064 1925 56 SI MM NOT_NAMED 1925-01-05 21:00:00 NR -23.9751 65.0602 main 855 855 _____P________ -1 -23.9751 65.0602 99 1 86
1924365S12064 1925 56 SI MM NOT_NAMED 1925-01-06 00:00:00 NR -23.9613 65.0961 main 855 850 _____P________ -1 -23.9613 65.0961 99 1 43
1924365S12064 1925 56 SI MM NOT_NAMED 1925-01-06 03:00:00 NR -23.9341 65.1049 main 850 850 _____P________ -1 -23.9341 65.1049 99 1 0
1924365S12064 1925 56 SI MM NOT_NAMED 1925-01-06 06:00:00 NR -23.9000 65.1000 reunion main 850 _____O________ -1 -23.9000 65.1000 99 9.90000 1 329

IBTrACS Databaseについて

本データベースは、米国NOAAが公開する1842年以降の世界の熱帯低気圧のベストトラックデータアーカイブInternational Best Track Archive for Climate Stewardship (IBTrACS)を、ウェブで閲覧しやすい形式に変換したものです。

最終更新日:2021-12-01